createdAt,value
2018-12-19T00:01:44.254Z,15.63
2018-12-19T00:04:31.635Z,15.40
2018-12-19T00:07:19.003Z,14.23
2018-12-19T00:10:08.754Z,21.45
2018-12-19T00:12:58.792Z,16.63
2018-12-19T00:15:47.630Z,15.93
2018-12-19T00:18:34.946Z,16.73
2018-12-19T00:21:22.208Z,17.37
2018-12-19T00:24:10.298Z,16.63
2018-12-19T00:26:58.215Z,16.33
2018-12-19T00:29:46.418Z,16.53
2018-12-19T00:32:35.173Z,16.80
2018-12-19T00:35:26.238Z,15.53
2018-12-19T00:38:13.680Z,15.87
2018-12-19T00:41:01.854Z,15.53
2018-12-19T00:43:49.563Z,14.73
2018-12-19T00:46:44.912Z,14.27
2018-12-19T00:49:32.868Z,13.40
2018-12-19T00:52:20.872Z,14.47
2018-12-19T00:55:08.963Z,22.17
2018-12-19T00:57:57.594Z,16.03
2018-12-19T01:00:45.913Z,22.55
2018-12-19T01:03:33.554Z,15.87
2018-12-19T01:06:20.835Z,14.73
2018-12-19T01:12:14.163Z,14.87
2018-12-19T01:15:02.619Z,14.00
2018-12-19T01:17:50.297Z,14.57
2018-12-19T01:20:39.614Z,14.53
2018-12-19T01:23:26.807Z,13.93
2018-12-19T01:26:14.421Z,14.60
2018-12-19T01:29:02.056Z,14.50
2018-12-19T01:31:49.205Z,14.27
2018-12-19T01:34:42.171Z,14.20
2018-12-19T01:59:21.409Z,16.57
2018-12-19T02:02:08.646Z,16.93
2018-12-19T02:05:05.397Z,27.03
2018-12-19T02:11:02.304Z,16.83
2018-12-19T02:13:49.311Z,17.47
2018-12-19T02:16:55.742Z,17.80
2018-12-19T02:19:44.628Z,17.40
2018-12-19T02:22:33.797Z,16.90
2018-12-19T02:25:21.312Z,16.37
2018-12-19T02:28:09.696Z,17.13
2018-12-19T02:30:57.476Z,16.77
2018-12-19T02:33:44.891Z,16.80
2018-12-19T02:36:33.113Z,17.10
2018-12-19T02:39:20.578Z,26.23
2018-12-19T02:42:08.477Z,20.43
2018-12-19T02:44:56.037Z,17.47
2018-12-19T02:47:42.924Z,16.73
2018-12-19T02:53:36.355Z,18.70
2018-12-19T02:56:23.638Z,26.20
2018-12-19T02:59:11.021Z,19.90
2018-12-19T03:11:17.292Z,15.80
2018-12-19T03:14:05.593Z,16.97
2018-12-19T03:16:52.709Z,16.80
2018-12-19T03:19:40.132Z,17.07
2018-12-19T03:28:55.879Z,25.55
2018-12-19T03:31:42.738Z,17.23
2018-12-19T03:34:30.371Z,16.43
2018-12-19T03:37:18.141Z,15.83
2018-12-19T03:40:05.427Z,15.03
2018-12-19T03:42:52.418Z,14.70
2018-12-19T03:52:08.635Z,16.90
2018-12-19T03:54:56.770Z,15.33
2018-12-19T03:57:43.697Z,14.93
2018-12-19T04:03:45.094Z,16.47
2018-12-19T04:06:33.679Z,15.97
2018-12-19T04:09:20.516Z,16.53
2018-12-19T04:15:14.670Z,15.57
2018-12-19T04:18:01.995Z,16.30
2018-12-19T04:20:53.120Z,16.13
2018-12-19T04:23:56.038Z,15.73
2018-12-19T04:26:47.021Z,16.30
2018-12-19T04:29:30.988Z,15.80
2018-12-19T04:32:18.379Z,15.40
2018-12-19T04:35:08.427Z,16.17
2018-12-19T04:44:09.176Z,16.87
2018-12-19T04:46:56.303Z,17.07
2018-12-19T04:52:53.920Z,24.27
2018-12-19T04:55:41.034Z,17.73
2018-12-19T04:58:27.855Z,17.50
2018-12-19T05:01:31.583Z,17.70
2018-12-19T05:04:34.136Z,15.80
2018-12-19T05:10:28.701Z,15.03
2018-12-19T05:13:16.063Z,24.87
2018-12-19T05:16:03.485Z,16.87
2018-12-19T05:18:59.168Z,16.63
2018-12-19T05:21:47.302Z,14.10
2018-12-19T05:27:47.774Z,13.27
2018-12-19T05:30:35.807Z,14.60
2018-12-19T05:33:23.720Z,14.60
2018-12-19T05:36:11.098Z,12.93
2018-12-19T05:38:58.067Z,13.83
2018-12-19T05:54:11.521Z,19.77
2018-12-19T05:56:58.551Z,14.47
2018-12-19T05:59:45.431Z,14.00
2018-12-19T06:02:33.194Z,12.97
2018-12-19T06:05:20.555Z,12.33
2018-12-19T06:08:09.600Z,11.93
2018-12-19T06:10:54.397Z,11.57
2018-12-19T06:20:01.940Z,10.43
2018-12-19T06:25:57.447Z,11.10
2018-12-19T06:28:46.305Z,9.77
2018-12-19T06:37:55.709Z,9.33
2018-12-19T06:43:49.596Z,9.47
2018-12-19T07:08:33.980Z,8.00
2018-12-19T07:11:21.339Z,8.33
2018-12-19T07:17:14.297Z,8.00
2018-12-19T07:20:01.336Z,7.53
2018-12-19T07:22:48.666Z,8.87
2018-12-19T07:25:35.992Z,7.93
2018-12-19T07:28:23.689Z,9.30
2018-12-19T07:31:11.586Z,8.37
2018-12-19T07:34:14.777Z,8.63
2018-12-19T07:37:10.268Z,7.97
2018-12-19T07:39:57.714Z,7.73
2018-12-19T07:42:44.984Z,8.13
2018-12-19T07:45:32.408Z,7.97
2018-12-19T07:48:19.875Z,11.82
2018-12-19T07:51:07.153Z,8.40
2018-12-19T07:53:55.351Z,8.43
2018-12-19T07:56:50.617Z,8.07
2018-12-19T07:59:38.213Z,7.97
2018-12-19T08:02:25.431Z,8.13
2018-12-19T08:05:12.923Z,8.17
2018-12-19T08:08:00.343Z,12.05
2018-12-19T08:10:52.219Z,8.73
2018-12-19T08:13:35.086Z,10.35
2018-12-19T08:16:30.041Z,8.10
2018-12-19T08:19:18.264Z,9.70
2018-12-19T08:22:05.818Z,8.93
2018-12-19T08:24:53.208Z,7.63
2018-12-19T08:27:41.084Z,10.18
2018-12-19T08:30:29.305Z,7.60
2018-12-19T08:33:17.438Z,8.50
2018-12-19T08:36:04.802Z,7.83
2018-12-19T08:38:52.234Z,7.57
2018-12-19T08:41:39.986Z,7.97
2018-12-19T08:44:28.687Z,8.20
2018-12-19T08:47:16.389Z,7.73
2018-12-19T08:50:05.053Z,9.85
2018-12-19T08:52:52.293Z,8.23
2018-12-19T08:55:39.291Z,7.10
2018-12-19T08:58:26.495Z,8.37
2018-12-19T09:01:14.479Z,7.13
2018-12-19T09:04:04.872Z,7.77
2018-12-19T09:06:52.405Z,7.80
2018-12-19T09:09:40.453Z,7.70
2018-12-19T09:12:28.072Z,8.23
2018-12-19T09:15:15.194Z,7.97
2018-12-19T09:18:03.148Z,7.60
2018-12-19T09:20:51.263Z,6.77
2018-12-19T09:23:39.580Z,8.03
2018-12-19T09:26:26.715Z,7.40
2018-12-19T09:29:21.288Z,7.53
2018-12-19T09:32:09.845Z,7.60
2018-12-19T09:34:58.292Z,8.10
2018-12-19T09:40:52.035Z,7.37
2018-12-19T09:43:39.660Z,7.50
2018-12-19T09:46:27.979Z,10.18
2018-12-19T09:49:20.864Z,8.03
2018-12-19T09:52:08.531Z,10.37
2018-12-19T09:54:55.977Z,7.97
2018-12-19T09:57:43.642Z,7.03
2018-12-19T10:00:31.134Z,7.90
2018-12-19T10:03:18.717Z,7.23
2018-12-19T10:06:08.484Z,10.00
2018-12-19T10:08:56.250Z,8.13
2018-12-19T10:11:43.614Z,7.20
2018-12-19T10:14:31.093Z,7.60
2018-12-19T10:17:19.073Z,7.70
2018-12-19T10:20:06.342Z,6.77
2018-12-19T10:23:00.753Z,7.03
2018-12-19T10:25:48.356Z,6.53
2018-12-19T10:28:35.819Z,6.73
2018-12-19T10:31:25.189Z,7.53
2018-12-19T10:34:13.352Z,7.63
2018-12-19T10:37:00.689Z,6.90
2018-12-19T10:39:50.198Z,6.63
2018-12-19T10:42:40.601Z,7.70
2018-12-19T10:51:44.417Z,7.70
2018-12-19T10:54:31.714Z,7.10
2018-12-19T10:57:19.485Z,8.07
2018-12-19T11:00:07.081Z,9.07
2018-12-19T11:02:54.724Z,8.63
2018-12-19T11:05:44.067Z,7.57
2018-12-19T11:08:33.994Z,6.63
2018-12-19T11:11:20.983Z,6.40
2018-12-19T11:14:08.503Z,6.07
2018-12-19T11:16:55.941Z,6.50
2018-12-19T11:19:43.194Z,6.70
2018-12-19T11:25:37.174Z,6.47
2018-12-19T11:28:24.590Z,7.37
2018-12-19T11:31:14.427Z,7.30
2018-12-19T11:34:06.432Z,6.93
2018-12-19T11:36:53.897Z,9.25
2018-12-19T11:39:43.857Z,7.53
2018-12-19T14:31:58.022Z,8.13
2018-12-19T14:34:46.057Z,8.67
2018-12-19T14:37:36.956Z,9.20
2018-12-19T14:40:29.071Z,8.43
2018-12-19T14:43:16.837Z,9.13
2018-12-19T14:46:07.840Z,8.83
2018-12-19T17:31:10.884Z,10.63
2018-12-19T17:56:06.621Z,8.83
2018-12-19T18:17:38.331Z,10.07
2018-12-19T18:48:44.597Z,11.90
2018-12-19T18:51:31.686Z,10.80
2018-12-19T19:13:01.599Z,10.37
2018-12-19T19:15:49.609Z,10.77
2018-12-19T19:18:37.054Z,10.57
2018-12-19T19:21:32.224Z,10.87
2018-12-19T19:24:27.189Z,10.17
2018-12-19T19:27:15.004Z,10.03
2018-12-19T19:33:11.136Z,13.60
2018-12-19T19:35:58.286Z,14.93
2018-12-19T19:38:46.192Z,11.90
2018-12-19T19:41:34.324Z,10.80
2018-12-19T19:44:21.768Z,10.47
2018-12-19T19:47:09.547Z,10.90
2018-12-19T19:50:00.507Z,10.20
2018-12-19T19:52:48.861Z,13.00
2018-12-19T19:55:36.576Z,11.30
2018-12-19T19:58:32.505Z,10.93
2018-12-19T20:01:37.115Z,11.00
2018-12-19T20:10:53.321Z,10.83
2018-12-19T20:20:10.377Z,10.73
2018-12-19T20:22:57.796Z,10.73
2018-12-19T20:28:53.225Z,10.93
2018-12-19T20:31:41.616Z,10.77
2018-12-19T20:34:29.733Z,10.70
2018-12-19T20:40:24.966Z,11.77
2018-12-19T20:49:40.455Z,15.18
2018-12-19T20:52:31.629Z,11.97
2018-12-19T20:55:18.696Z,11.07
2018-12-19T20:58:09.034Z,12.07
2018-12-19T21:00:57.448Z,10.50
2018-12-19T21:03:45.658Z,12.57
2018-12-19T21:06:33.049Z,11.57
2018-12-19T21:09:20.191Z,10.87
2018-12-19T21:12:10.009Z,11.60
2018-12-19T21:15:04.023Z,11.80
2018-12-19T21:18:09.732Z,11.30
2018-12-19T21:20:56.983Z,10.33
2018-12-19T21:23:52.596Z,12.37
2018-12-19T21:26:39.742Z,11.17
2018-12-19T21:29:27.948Z,11.00
2018-12-19T21:35:25.800Z,11.37
2018-12-19T21:44:30.151Z,11.07
2018-12-19T21:50:25.014Z,11.53
2018-12-19T21:53:20.949Z,11.50
2018-12-19T21:56:12.879Z,12.13
2018-12-19T21:59:07.377Z,12.33
2018-12-19T22:05:02.090Z,11.87
2018-12-19T22:07:52.383Z,11.73
2018-12-19T22:17:13.412Z,12.47
2018-12-19T22:20:00.916Z,12.50
2018-12-19T22:22:56.821Z,16.77
2018-12-19T22:25:46.435Z,14.00
2018-12-19T22:28:33.983Z,13.53
2018-12-19T22:31:21.604Z,18.17
2018-12-19T22:34:11.818Z,14.97
2018-12-19T22:37:03.184Z,13.10
2018-12-19T22:39:52.278Z,13.30
2018-12-19T22:42:43.673Z,12.63
2018-12-19T22:45:32.257Z,18.00
2018-12-19T22:48:21.239Z,14.83
2018-12-19T22:51:13.210Z,13.60
2018-12-19T22:54:08.451Z,14.20
2018-12-19T22:56:57.450Z,18.70
2018-12-19T23:03:10.186Z,14.30
2018-12-19T23:06:04.096Z,14.40
2018-12-19T23:08:51.920Z,14.23
2018-12-19T23:11:39.473Z,14.43
2018-12-19T23:17:43.349Z,14.60
2018-12-19T23:23:37.942Z,15.13
2018-12-19T23:26:25.620Z,15.33
2018-12-19T23:29:13.324Z,14.63
2018-12-19T23:32:01.391Z,15.13
2018-12-19T23:34:48.827Z,14.70
2018-12-19T23:37:39.141Z,21.65
2018-12-19T23:40:34.057Z,16.87
2018-12-19T23:43:22.476Z,21.77
2018-12-19T23:46:09.683Z,17.07
2018-12-19T23:52:21.975Z,15.37
2018-12-19T23:55:10.220Z,14.77
2018-12-19T23:57:57.862Z,15.70
